Time;durP1;ratioP1;P1;durP2;ratioP2;P2;SDS_P1;SDS_P2;PMS_P1;PMS_P2;Temp;Humidity;BMP_temperature;BMP_pressure;BME280_temperature;BME280_humidity;BME280_pressure;Samples;Min_cycle;Max_cycle;Signal;HPM_P1;HPM_P2
2023/12/20 00:00:57;;;;;;;;;9.00;9.00;;;;;9.80;91.89;101525.72;4998161;28;45326;-84
2023/12/20 00:03:23;;;;;;;;;9.75;9.00;;;;;9.87;91.89;101546.69;4995288;28;45329;-84
2023/12/20 00:05:49;;;;;;;;;15.50;9.75;;;;;9.85;90.59;101551.19;4983383;28;45412;-82
2023/12/20 00:08:14;;;;;;;;;9.00;9.00;;;;;9.73;90.57;101543.69;4976187;28;46195;-84
2023/12/20 00:10:40;;;;;;;;;7.75;7.75;;;;;9.60;90.33;101545.91;4989383;28;45280;-84
2023/12/20 00:13:06;;;;;;;;;9.25;8.25;;;;;9.56;90.17;101554.06;4986868;27;45642;-83
2023/12/20 00:15:32;;;;;;;;;13.50;8.00;;;;;9.58;90.68;101562.84;4986239;28;45389;-85
2023/12/20 00:17:57;;;;;;;;;12.75;10.00;;;;;9.57;90.01;101558.44;4992209;28;45327;-86
2023/12/20 00:20:22;;;;;;;;;9.25;8.75;;;;;9.52;89.38;101550.66;4978667;28;45424;-85
2023/12/20 00:22:48;;;;;;;;;6.50;5.50;;;;;9.61;89.56;101571.56;4973967;28;49599;-85
2023/12/20 00:25:13;;;;;;;;;8.75;7.00;;;;;9.52;89.61;101576.34;4974468;28;54449;-84
2023/12/20 00:27:38;;;;;;;;;9.00;7.75;;;;;9.43;88.06;101583.72;4991977;28;46085;-84
2023/12/20 00:30:04;;;;;;;;;9.25;4.50;;;;;9.38;85.26;101590.97;5004998;27;51623;-84
2023/12/20 00:32:29;;;;;;;;;4.00;4.00;;;;;9.31;86.37;101580.63;4989497;28;45232;-85
2023/12/20 00:34:55;;;;;;;;;2.50;2.50;;;;;9.22;84.59;101578.28;5007535;27;45369;-83
2023/12/20 00:37:20;;;;;;;;;5.00;2.00;;;;;9.27;81.82;101587.84;4993510;27;45421;-85
2023/12/20 00:39:45;;;;;;;;;1.00;1.00;;;;;9.19;81.65;101579.25;4993509;28;60900;-84
2023/12/20 00:42:10;;;;;;;;;1.67;1.67;;;;;9.19;80.29;101587.22;4991179;28;65231;-85
2023/12/20 00:44:36;;;;;;;;;1.00;1.00;;;;;9.10;80.66;101591.03;4993524;28;45345;-85
2023/12/20 00:47:01;;;;;;;;;1.50;1.00;;;;;9.04;78.65;101585.09;4993285;28;51734;-85
2023/12/20 00:49:27;;;;;;;;;1.00;1.00;;;;;8.91;76.37;101594.38;4979642;28;45331;-85
2023/12/20 00:51:52;;;;;;;;;0.00;0.00;;;;;8.75;76.50;101573.69;4974008;28;45417;-84
2023/12/20 00:54:18;;;;;;;;;0.00;0.00;;;;;8.69;77.05;101579.16;4990714;28;45548;-85
2023/12/20 00:56:43;;;;;;;;;0.25;0.25;;;;;8.70;77.18;101587.97;4993486;27;45887;-84
2023/12/20 00:59:09;;;;;;;;;1.00;0.00;;;;;8.57;76.69;101584.84;4993251;28;45361;-85
2023/12/20 01:01:34;;;;;;;;;0.00;0.00;;;;;8.48;77.24;101575.44;4993407;28;45371;-84
2023/12/20 01:03:59;;;;;;;;;0.00;0.00;;;;;8.56;77.13;101596.38;4993602;28;53112;-84
2023/12/20 01:06:24;;;;;;;;;1.50;1.50;;;;;8.54;78.33;101600.88;4979204;28;58820;-83
2023/12/20 01:08:50;;;;;;;;;2.00;1.00;;;;;8.47;78.59;101578.13;4973764;28;45305;-86
2023/12/20 01:11:15;;;;;;;;;2.25;1.75;;;;;8.48;78.85;101588.69;4973862;28;45452;-84
2023/12/20 01:13:40;;;;;;;;;3.00;1.00;;;;;8.42;78.67;101595.94;4973401;28;45487;-84
2023/12/20 01:16:06;;;;;;;;;2.00;0.00;;;;;8.38;78.72;101604.91;4973158;28;46762;-84
2023/12/20 01:18:31;;;;;;;;;3.25;1.00;;;;;8.21;78.57;101590.38;4973336;28;45323;-85
2023/12/20 01:21:02;;;;;;;;;1.75;0.00;;;;;8.34;79.19;101624.47;4973500;28;45288;-84
2023/12/20 01:23:28;;;;;;;;;2.50;1.50;;;;;8.25;79.36;101615.00;4988513;28;45366;-84
2023/12/20 01:25:53;;;;;;;;;2.50;1.00;;;;;8.19;79.58;101602.78;4973125;28;45418;-84
2023/12/20 01:28:19;;;;;;;;;3.00;1.50;;;;;8.28;79.69;101631.66;4974429;28;45347;-85
2023/12/20 01:30:44;;;;;;;;;1.50;1.00;;;;;8.08;79.72;101594.31;4991870;28;45413;-83
2023/12/20 01:33:09;;;;;;;;;1.50;1.50;;;;;8.15;80.64;101603.78;4995909;28;45553;-83
2023/12/20 01:35:35;;;;;;;;;1.25;1.25;;;;;8.05;80.58;101607.63;4995522;27;46101;-85
2023/12/20 01:38:00;;;;;;;;;2.00;1.00;;;;;8.10;80.91;101623.41;4994932;27;61979;-84
2023/12/20 01:40:25;;;;;;;;;1.00;1.00;;;;;8.13;81.13;101610.94;4981624;28;53047;-86
2023/12/20 01:43:23;;;;;;;;;3.25;2.00;;;;;8.11;80.84;101623.34;4976304;28;45234;-82
2023/12/20 01:45:49;;;;;;;;;2.50;2.00;;;;;7.96;81.13;101614.06;5031014;28;55440;-84
2023/12/20 01:48:16;;;;;;;;;2.25;1.00;;;;;7.95;81.57;101627.38;4975724;28;45320;-84
2023/12/20 01:50:43;;;;;;;;;1.00;1.00;;;;;7.89;81.64;101623.09;4976278;28;45505;-83
2023/12/20 01:53:10;;;;;;;;;2.50;1.00;;;;;7.83;81.58;101618.00;4991436;27;45449;-84
2023/12/20 01:55:39;;;;;;;;;1.25;1.00;;;;;7.89;82.55;101633.69;4975669;28;45531;-84
2023/12/20 01:58:05;;;;;;;;;8.25;3.00;;;;;7.83;81.83;101618.00;4976196;28;45433;-85
2023/12/20 02:00:31;;;;;;;;;2.25;2.00;;;;;8.02;82.09;101639.50;4975877;28;45483;-85
2023/12/20 02:03:00;;;;;;;;;1.25;1.25;;;;;8.06;81.08;101646.44;4975896;28;45627;-85
2023/12/20 02:05:27;;;;;;;;;3.50;1.25;;;;;7.99;81.75;101634.31;4975654;28;46354;-84
2023/12/20 02:07:53;;;;;;;;;2.00;1.50;;;;;8.02;81.35;101628.91;4976295;28;45749;-87
2023/12/20 02:10:18;;;;;;;;;0.00;0.00;;;;;8.13;80.77;101639.22;4976375;28;45414;-85
2023/12/20 02:12:44;;;;;;;;;1.00;1.00;;;;;8.20;80.31;101644.28;4976265;28;45550;-84
2023/12/20 02:15:09;;;;;;;;;1.25;1.00;;;;;8.28;80.22;101652.00;4994701;28;46307;-85
2023/12/20 02:17:35;;;;;;;;;0.75;0.50;;;;;8.38;80.41;101657.94;5010683;27;45330;-85
2023/12/20 02:20:00;;;;;;;;;2.50;1.00;;;;;8.42;80.09;101654.28;4995437;28;45327;-84
2023/12/20 02:22:26;;;;;;;;;1.00;1.00;;;;;8.43;79.80;101656.00;4995125;28;45490;-84
2023/12/20 02:24:51;;;;;;;;;3.50;2.75;;;;;8.47;78.67;101655.88;4995650;28;48702;-84
2023/12/20 02:27:19;;;;;;;;;0.25;0.25;;;;;8.42;78.84;101657.78;4994824;27;65936;-85
2023/12/20 02:29:47;;;;;;;;;3.00;1.00;;;;;8.26;78.88;101649.41;4994786;28;45463;-82
2023/12/20 02:32:13;;;;;;;;;3.00;1.25;;;;;8.12;79.40;101629.53;4975584;28;45552;-84
2023/12/20 02:34:38;;;;;;;;;1.00;1.00;;;;;8.22;79.42;101625.69;4974701;28;61133;-84
2023/12/20 02:37:03;;;;;;;;;1.50;1.00;;;;;8.26;79.25;101633.50;4978599;28;58794;-84
2023/12/20 02:39:28;;;;;;;;;1.00;1.00;;;;;8.47;78.91;101657.66;4982401;28;45202;-85
2023/12/20 02:41:54;;;;;;;;;1.25;1.00;;;;;8.34;78.03;101657.16;4975450;28;45187;-84
2023/12/20 02:44:19;;;;;;;;;1.75;1.00;;;;;8.32;78.93;101668.66;4975482;28;46253;-85
2023/12/20 02:46:45;;;;;;;;;3.25;0.75;;;;;8.35;78.78;101676.59;4975385;28;45536;-85
2023/12/20 02:49:10;;;;;;;;;1.50;1.00;;;;;8.28;78.04;101674.06;4975619;28;45173;-84
2023/12/20 02:51:38;;;;;;;;;1.00;1.00;;;;;8.23;78.23;101669.81;4975790;28;45587;-84
2023/12/20 02:54:04;;;;;;;;;1.25;1.00;;;;;8.15;78.91;101656.78;4979550;28;45507;-83
2023/12/20 02:56:29;;;;;;;;;1.00;1.00;;;;;8.11;79.04;101655.16;4993215;28;45279;-85
2023/12/20 02:58:54;;;;;;;;;1.00;1.00;;;;;8.20;78.91;101665.50;4995006;28;45322;-85
2023/12/20 03:01:19;;;;;;;;;1.00;1.00;;;;;8.08;79.14;101649.94;4995257;28;45471;-84
2023/12/20 03:03:45;;;;;;;;;2.00;2.00;;;;;8.16;78.98;101661.19;4993993;28;46118;-84
2023/12/20 03:06:10;;;;;;;;;1.00;1.00;;;;;8.12;79.50;101654.22;4974759;28;64857;-84
2023/12/20 03:08:35;;;;;;;;;5.50;1.00;;;;;8.03;78.93;101646.53;4975275;28;45578;-83
2023/12/20 03:11:01;;;;;;;;;0.00;0.00;;;;;8.10;78.96;101671.09;4974699;28;53423;-84
2023/12/20 03:13:26;;;;;;;;;2.00;2.00;;;;;8.18;78.64;101672.59;4978906;28;45255;-83
2023/12/20 03:15:51;;;;;;;;;1.75;1.75;;;;;8.16;78.35;101668.25;4994579;28;45253;-85
2023/12/20 03:18:18;;;;;;;;;2.25;1.75;;;;;7.95;78.63;101637.97;4994958;28;45440;-83
2023/12/20 03:20:43;;;;;;;;;5.50;1.00;;;;;8.09;79.03;101669.38;4995378;28;45230;-83
2023/12/20 03:23:08;;;;;;;;;4.25;1.25;;;;;8.02;79.16;101654.53;4975897;28;45263;-84
2023/12/20 03:25:34;;;;;;;;;1.00;1.00;;;;;8.08;78.80;101676.44;4975180;27;45214;-85
2023/12/20 03:27:59;;;;;;;;;2.25;1.00;;;;;7.99;79.79;101656.38;4974742;28;55084;-85
2023/12/20 03:30:24;;;;;;;;;2.00;2.00;;;;;7.97;79.58;101658.19;4975328;28;45359;-85
2023/12/20 03:32:50;;;;;;;;;0.50;0.50;;;;;7.97;79.57;101646.72;4974673;27;45271;-83
2023/12/20 03:35:15;;;;;;;;;2.00;0.50;;;;;8.07;79.23;101664.06;4975101;28;45479;-85
2023/12/20 03:37:40;;;;;;;;;2.00;0.50;;;;;8.00;79.32;101654.59;4974792;28;45436;-83
2023/12/20 03:40:06;;;;;;;;;1.50;1.50;;;;;8.00;79.01;101667.81;4993068;28;51401;-84
2023/12/20 03:42:31;;;;;;;;;1.00;1.00;;;;;7.91;79.53;101663.66;5009397;28;47117;-84
2023/12/20 03:44:57;;;;;;;;;2.75;1.75;;;;;7.99;79.48;101663.44;4993463;28;70421;-84
2023/12/20 03:47:22;;;;;;;;;2.25;1.00;;;;;8.01;79.48;101685.47;5008965;27;55564;-84
2023/12/20 03:49:47;;;;;;;;;0.25;0.25;;;;;7.96;80.15;101676.78;4993979;28;47478;-83
2023/12/20 03:52:13;;;;;;;;;1.50;0.50;;;;;7.88;79.33;101663.75;4993194;27;45272;-83
2023/12/20 03:54:38;;;;;;;;;2.00;1.00;;;;;7.95;79.60;101678.56;4994061;28;45390;-84
2023/12/20 03:57:04;;;;;;;;;1.25;1.00;;;;;7.96;80.05;101688.25;4979529;28;45494;-84
2023/12/20 03:59:34;;;;;;;;;2.00;2.00;;;;;7.94;79.71;101678.59;4975428;28;45411;-84
2023/12/20 04:01:59;;;;;;;;;0.25;0.25;;;;;7.97;79.71;101681.16;4974637;28;45246;-84
2023/12/20 04:04:25;;;;;;;;;2.25;2.00;;;;;7.83;79.70;101656.84;4974220;28;45353;-83
2023/12/20 04:06:50;;;;;;;;;0.50;0.25;;;;;7.87;79.92;101671.72;4993189;28;65377;-82
2023/12/20 04:09:15;;;;;;;;;2.25;1.00;;;;;7.91;80.24;101674.25;4994274;28;45559;-84
2023/12/20 04:11:41;;;;;;;;;0.25;0.25;;;;;7.90;80.12;101669.00;4995951;27;45480;-84
2023/12/20 04:14:07;;;;;;;;;1.50;0.25;;;;;7.83;80.11;101663.00;4975931;28;45420;-84
2023/12/20 04:16:32;;;;;;;;;0.50;0.00;;;;;7.87;79.61;101679.69;4993040;28;45332;-83
2023/12/20 04:18:57;;;;;;;;;1.75;1.00;;;;;7.89;79.61;101675.19;5010762;27;45369;-85
2023/12/20 04:21:23;;;;;;;;;2.00;0.75;;;;;7.96;79.90;101679.44;4993920;27;45410;-85
2023/12/20 04:23:48;;;;;;;;;1.00;1.00;;;;;7.88;79.14;101662.88;4993732;28;49392;-85
2023/12/20 04:26:13;;;;;;;;;1.00;1.00;;;;;7.94;79.56;101671.53;4993555;28;55954;-86
2023/12/20 04:28:39;;;;;;;;;1.00;1.00;;;;;7.89;79.20;101669.91;4994096;28;45649;-85
2023/12/20 04:31:04;;;;;;;;;1.25;1.00;;;;;7.92;79.15;101689.22;4974488;28;54319;-85
2023/12/20 04:33:29;;;;;;;;;1.75;1.75;;;;;7.92;79.90;101694.53;4974427;28;45437;-85
2023/12/20 04:35:55;;;;;;;;;0.25;0.00;;;;;7.84;79.02;101682.41;4973353;28;55804;-83
2023/12/20 04:38:20;;;;;;;;;3.00;0.50;;;;;7.96;78.73;101687.38;4974247;28;45516;-84
2023/12/20 04:40:45;;;;;;;;;1.50;1.00;;;;;7.81;78.86;101658.63;4972833;28;70168;-85
2023/12/20 04:43:10;;;;;;;;;1.00;1.00;;;;;7.93;79.14;101676.84;4973688;28;45280;-86
2023/12/20 04:45:36;;;;;;;;;3.00;1.75;;;;;7.85;79.10;101663.84;4973932;28;45237;-84
2023/12/20 04:48:02;;;;;;;;;0.50;0.50;;;;;7.90;79.39;101676.94;4974559;28;45645;-83
2023/12/20 04:50:27;;;;;;;;;2.25;2.00;;;;;7.80;78.35;101654.25;4973717;28;45440;-84
2023/12/20 04:52:53;;;;;;;;;2.50;0.75;;;;;7.86;78.94;101676.16;4973610;28;45765;-84
2023/12/20 04:55:18;;;;;;;;;2.25;1.00;;;;;7.92;79.16;101683.06;4973872;28;45393;-84
2023/12/20 04:57:44;;;;;;;;;2.25;0.25;;;;;7.83;78.88;101670.09;4973764;28;45342;-84
2023/12/20 05:00:09;;;;;;;;;1.75;1.75;;;;;7.88;79.55;101679.63;4973705;28;45336;-82
2023/12/20 05:02:36;;;;;;;;;0.00;0.00;;;;;7.93;79.07;101676.84;4973322;28;45461;-83
2023/12/20 05:05:01;;;;;;;;;0.00;0.00;;;;;7.91;79.29;101668.06;4993360;28;45485;-84
2023/12/20 05:07:26;;;;;;;;;2.00;0.00;;;;;7.91;78.71;101676.03;4996642;27;45237;-84
2023/12/20 05:09:52;;;;;;;;;1.00;1.00;;;;;7.96;78.30;101685.59;4995022;28;45327;-85
2023/12/20 05:12:17;;;;;;;;;1.00;1.00;;;;;7.89;78.31;101676.06;4998351;27;45382;-84
2023/12/20 05:14:42;;;;;;;;;2.50;1.00;;;;;7.97;78.05;101674.09;4994734;27;46066;-84
2023/12/20 05:17:08;;;;;;;;;1.50;1.00;;;;;8.03;77.91;101680.13;4996544;28;45420;-85
2023/12/20 05:19:35;;;;;;;;;1.75;0.75;;;;;8.19;77.84;101690.22;4995028;28;45436;-83
2023/12/20 05:22:01;;;;;;;;;3.00;0.25;;;;;8.22;77.46;101703.41;4993272;27;45372;-85
2023/12/20 05:24:26;;;;;;;;;1.50;1.50;;;;;8.12;77.78;101686.03;4996662;28;45456;-85
2023/12/20 05:26:52;;;;;;;;;2.75;1.00;;;;;8.22;77.21;101698.13;4996297;28;49018;-84
2023/12/20 05:29:17;;;;;;;;;2.50;1.25;;;;;8.09;77.64;101675.53;4996181;28;45240;-85
2023/12/20 05:31:43;;;;;;;;;0.75;0.75;;;;;8.15;77.25;101696.53;4994479;28;45355;-85
2023/12/20 05:34:08;;;;;;;;;2.00;1.50;;;;;8.00;77.73;101678.44;4996181;28;45239;-84
2023/12/20 05:36:33;;;;;;;;;1.00;1.00;;;;;8.10;77.79;101698.47;5014344;27;45223;-84
2023/12/20 05:38:58;;;;;;;;;2.00;2.00;;;;;8.08;77.15;101710.03;4977451;27;45319;-83
2023/12/20 05:41:24;;;;;;;;;2.50;1.00;;;;;7.99;77.40;101703.19;4976131;28;45231;-84
2023/12/20 05:43:49;;;;;;;;;0.25;0.25;;;;;7.99;77.06;101703.19;4976146;28;45364;-83
2023/12/20 05:46:14;;;;;;;;;3.00;2.25;;;;;7.93;77.76;101693.59;4976270;28;45519;-85
2023/12/20 05:48:40;;;;;;;;;2.75;0.75;;;;;7.97;77.81;101700.59;4975653;28;46366;-85
2023/12/20 05:51:05;;;;;;;;;4.25;2.00;;;;;7.96;77.09;101698.84;4976593;28;57628;-85
2023/12/20 05:53:30;;;;;;;;;1.00;1.00;;;;;8.00;77.75;101712.88;4976708;28;45352;-84
2023/12/20 05:55:56;;;;;;;;;3.25;2.00;;;;;7.87;77.60;101700.88;4976152;28;47555;-86
2023/12/20 05:58:21;;;;;;;;;1.00;1.00;;;;;7.86;77.93;101696.47;4975945;28;45379;-87
2023/12/20 06:00:46;;;;;;;;;2.25;1.00;;;;;7.99;78.00;101709.34;4976142;28;45361;-83
2023/12/20 06:03:11;;;;;;;;;1.00;1.00;;;;;7.94;77.68;101707.72;4977307;28;45304;-84
2023/12/20 06:05:37;;;;;;;;;1.75;1.00;;;;;7.96;77.93;101713.88;4975939;28;46106;-84
2023/12/20 06:08:02;;;;;;;;;5.75;3.00;;;;;8.06;77.92;101731.22;4975191;28;60986;-84
2023/12/20 06:10:29;;;;;;;;;2.00;1.00;;;;;8.05;77.79;101733.91;4975674;27;45467;-86
2023/12/20 06:12:56;;;;;;;;;2.00;1.00;;;;;8.05;78.37;101732.13;4976323;28;45425;-84
2023/12/20 06:15:21;;;;;;;;;1.00;0.00;;;;;8.08;77.79;101739.16;4993656;27;45537;-84
2023/12/20 06:17:46;;;;;;;;;2.00;1.75;;;;;8.05;78.28;101732.13;4995222;28;45363;-85
2023/12/20 06:20:12;;;;;;;;;3.25;0.75;;;;;8.02;77.26;101724.28;4986937;27;45341;-84
2023/12/20 06:22:38;;;;;;;;;1.00;1.00;;;;;8.01;77.34;101716.38;4986228;28;45361;-85
2023/12/20 06:25:04;;;;;;;;;3.00;2.00;;;;;8.03;77.40;101722.50;4996037;28;45223;-84
2023/12/20 06:27:32;;;;;;;;;3.50;2.00;;;;;7.94;78.20;101705.06;4996122;27;46592;-85
2023/12/20 06:29:57;;;;;;;;;3.25;0.25;;;;;8.05;78.00;101725.97;4980059;28;45427;-85
2023/12/20 06:32:23;;;;;;;;;1.00;1.00;;;;;7.93;77.88;101708.63;4977383;28;45455;-84
2023/12/20 06:34:48;;;;;;;;;2.50;1.75;;;;;7.93;77.71;101719.22;4979079;28;45601;-82
2023/12/20 06:37:15;;;;;;;;;1.00;1.00;;;;;7.97;77.78;101720.91;4978100;28;46334;-85
2023/12/20 06:39:40;;;;;;;;;3.50;3.00;;;;;7.98;78.29;101727.94;4976593;28;45335;-83
2023/12/20 06:42:05;;;;;;;;;3.00;0.75;;;;;7.95;77.68;101728.03;4995571;27;45409;-84
2023/12/20 06:44:31;;;;;;;;;3.25;1.75;;;;;7.88;78.18;101716.72;4995306;28;45685;-83
2023/12/20 06:46:57;;;;;;;;;4.50;0.75;;;;;7.95;77.90;101728.03;4977314;28;46061;-84
2023/12/20 06:49:22;;;;;;;;;3.50;2.00;;;;;7.95;78.45;101739.50;4975146;28;45241;-85
2023/12/20 06:51:47;;;;;;;;;2.25;1.50;;;;;7.96;78.14;101735.06;4975747;28;45303;-85
2023/12/20 06:54:13;;;;;;;;;4.00;1.25;;;;;7.80;78.20;101707.22;4975937;28;45268;-84
2023/12/20 06:56:38;;;;;;;;;3.00;1.75;;;;;7.88;78.36;101737.03;4975994;28;46449;-84
2023/12/20 06:59:03;;;;;;;;;1.00;1.00;;;;;7.90;78.53;101735.22;5004561;27;45208;-85
2023/12/20 07:01:29;;;;;;;;;2.25;2.00;;;;;7.90;78.51;101740.50;4987831;28;52383;-84
2023/12/20 07:03:54;;;;;;;;;8.00;5.75;;;;;7.89;79.01;101738.78;5007885;27;53084;-84
2023/12/20 07:06:20;;;;;;;;;3.00;2.25;;;;;7.84;78.91;101735.38;4994406;27;51081;-85
2023/12/20 07:08:45;;;;;;;;;3.00;3.00;;;;;7.83;78.96;101734.53;5012540;27;45298;-84
2023/12/20 07:11:11;;;;;;;;;6.50;2.50;;;;;7.82;79.21;101737.22;5051694;27;45427;-86
2023/12/20 07:13:36;;;;;;;;;4.50;1.50;;;;;7.82;78.83;101740.72;5098165;27;45578;-85
2023/12/20 07:16:01;;;;;;;;;1.00;1.00;;;;;7.87;78.86;101746.75;5099940;27;46472;-86
2023/12/20 07:18:27;;;;;;;;;11.00;6.75;;;;;7.86;79.63;101754.75;5098447;27;45301;-86
2023/12/20 07:20:54;;;;;;;;;1.75;1.75;;;;;7.82;79.35;101755.75;4995835;27;45415;-87
2023/12/20 07:23:20;;;;;;;;;7.25;6.50;;;;;7.75;79.28;101740.91;4996172;28;45537;-86
2023/12/20 07:25:45;;;;;;;;;3.00;2.00;;;;;7.79;79.29;101761.09;4992848;28;45651;-84
2023/12/20 07:28:11;;;;;;;;;2.75;2.50;;;;;7.55;79.51;101721.13;4994534;28;45365;-85
2023/12/20 07:30:36;;;;;;;;;7.75;6.00;;;;;7.72;79.87;101752.47;4994349;28;45857;-83
2023/12/20 07:33:02;;;;;;;;;2.50;2.50;;;;;7.76;79.59;101750.59;4995528;28;45532;-84
2023/12/20 07:35:27;;;;;;;;;0.50;0.50;;;;;7.65;79.89;101741.16;5016483;27;47209;-86
2023/12/20 07:37:53;;;;;;;;;5.00;1.25;;;;;7.67;80.49;101754.34;4988852;28;45470;-85
2023/12/20 07:40:18;;;;;;;;;3.00;1.75;;;;;7.74;80.69;101755.94;4991832;28;45411;-84
2023/12/20 07:42:44;;;;;;;;;3.50;2.00;;;;;7.77;80.07;101760.28;4988028;27;45612;-83
2023/12/20 07:45:10;;;;;;;;;6.00;3.00;;;;;7.79;79.84;101772.56;5014478;27;45303;-84
2023/12/20 07:47:36;;;;;;;;;8.50;5.00;;;;;7.81;79.88;101767.22;5014334;27;45375;-84
2023/12/20 07:50:02;;;;;;;;;6.50;4.25;;;;;7.80;79.92;101771.66;5009763;27;45904;-83
2023/12/20 07:52:29;;;;;;;;;4.25;2.50;;;;;7.69;80.07;101761.34;5007992;27;45432;-82
2023/12/20 07:54:55;;;;;;;;;6.00;3.25;;;;;7.77;80.59;101769.09;5043945;27;45578;-84
2023/12/20 07:57:20;;;;;;;;;2.00;0.00;;;;;7.79;80.28;101775.22;5076998;27;45422;-90
2023/12/20 07:59:46;;;;;;;;;4.25;2.50;;;;;7.79;80.20;101763.75;5053532;27;45368;-89
2023/12/20 08:02:11;;;;;;;;;4.25;2.25;;;;;7.84;80.11;101773.34;5102119;27;45312;-91
2023/12/20 08:04:37;;;;;;;;;4.00;2.50;;;;;7.85;79.75;101758.31;5052436;27;47213;-89
2023/12/20 08:07:03;;;;;;;;;3.00;1.75;;;;;7.89;80.04;101765.25;5088627;27;45298;-89
2023/12/20 08:09:28;;;;;;;;;2.25;1.75;;;;;7.92;80.03;101754.56;5008974;28;45620;-90
2023/12/20 08:11:54;;;;;;;;;4.00;3.00;;;;;8.00;79.55;101763.19;5004017;27;44987;-91
2023/12/20 08:14:19;;;;;;;;;2.00;2.00;;;;;7.96;79.55;101757.13;5019870;28;45143;-90
2023/12/20 08:16:44;;;;;;;;;1.00;1.00;;;;;7.90;79.44;101737.84;5093795;27;45374;-86
2023/12/20 08:19:10;;;;;;;;;1.75;1.75;;;;;8.04;79.33;101763.97;4990534;28;45369;-84
2023/12/20 08:21:35;;;;;;;;;2.75;2.75;;;;;7.91;79.08;101743.09;4981683;28;46120;-86
2023/12/20 08:24:00;;;;;;;;;2.00;2.00;;;;;8.08;79.39;101761.22;4993650;28;45334;-80
2023/12/20 08:26:26;;;;;;;;;3.00;1.50;;;;;8.09;78.99;101751.50;5017064;27;45177;-85
2023/12/20 08:28:51;;;;;;;;;3.75;3.00;;;;;8.07;79.06;101742.69;4987414;28;45508;-83
2023/12/20 08:31:18;;;;;;;;;5.00;3.00;;;;;8.20;79.30;101758.25;5003437;28;45539;-82
2023/12/20 08:33:44;;;;;;;;;4.75;2.00;;;;;8.13;78.33;101740.75;4985369;28;45326;-83
2023/12/20 08:36:10;;;;;;;;;2.50;2.50;;;;;8.23;77.88;101747.53;4982678;27;45564;-85
2023/12/20 08:38:36;;;;;;;;;2.50;2.50;;;;;8.32;77.90;101741.09;4988140;28;45334;-91
2023/12/20 08:41:03;;;;;;;;;10.75;6.50;;;;;8.39;78.17;101752.44;5016990;28;45379;-87
2023/12/20 08:43:28;;;;;;;;;4.00;2.75;;;;;8.48;77.66;101755.72;5010632;28;46294;-85
2023/12/20 08:45:54;;;;;;;;;3.25;3.25;;;;;8.59;77.21;101763.31;5054646;27;45230;-84
2023/12/20 08:48:19;;;;;;;;;7.00;4.00;;;;;8.67;77.11;101760.47;5068812;27;44760;-84
2023/12/20 08:50:45;;;;;;;;;3.00;3.00;;;;;8.72;77.11;101758.53;5008943;27;45267;-83
2023/12/20 08:53:11;;;;;;;;;4.00;4.00;;;;;8.72;76.52;101754.09;5028636;27;46139;-83
2023/12/20 08:55:36;;;;;;;;;5.00;5.00;;;;;8.78;76.80;101761.03;5015322;27;45507;-84
2023/12/20 08:58:02;;;;;;;;;4.75;3.50;;;;;8.85;75.21;101766.09;5004505;28;45405;-86
2023/12/20 09:00:27;;;;;;;;;2.50;2.50;;;;;8.77;75.99;101768.09;5019196;27;45438;-84
2023/12/20 09:02:54;;;;;;;;;4.25;3.25;;;;;8.88;75.60;101777.53;4989040;27;45671;-83
2023/12/20 09:05:19;;;;;;;;;2.00;2.00;;;;;8.91;74.88;101774.78;4992709;27;45363;-84
2023/12/20 09:07:45;;;;;;;;;3.25;3.00;;;;;8.92;75.08;101768.56;5003784;27;45485;-84
2023/12/20 09:10:10;;;;;;;;;4.00;2.75;;;;;8.94;74.65;101758.75;4998240;28;48687;-84
2023/12/20 09:12:39;;;;;;;;;3.00;3.00;;;;;9.05;74.05;101767.25;5006104;27;46543;-84
2023/12/20 09:15:05;;;;;;;;;6.00;3.50;;;;;8.90;74.69;101722.63;5032043;27;45172;-85
2023/12/20 09:17:30;;;;;;;;;2.00;2.00;;;;;9.27;73.57;101763.03;5046739;27;45459;-86
2023/12/20 09:19:56;;;;;;;;;4.75;1.00;;;;;9.33;73.18;101746.88;5063005;27;45293;-86
2023/12/20 09:22:21;;;;;;;;;2.00;1.00;;;;;9.44;73.63;101754.50;5046041;27;45224;-84
2023/12/20 09:24:47;;;;;;;;;4.25;2.00;;;;;9.52;73.47;101749.81;5061789;27;45540;-85
2023/12/20 09:27:12;;;;;;;;;5.50;1.75;;;;;9.59;72.14;101753.13;5005887;28;45479;-84
2023/12/20 09:29:38;;;;;;;;;7.50;5.25;;;;;9.62;72.82;101753.03;5010307;28;45567;-86
2023/12/20 09:32:03;;;;;;;;;6.75;3.00;;;;;9.54;72.05;101745.31;5010859;27;45891;-84
2023/12/20 09:34:29;;;;;;;;;5.75;2.75;;;;;9.66;72.28;101760.84;5008818;27;45413;-86
2023/12/20 09:36:54;;;;;;;;;2.25;2.00;;;;;9.65;71.68;101758.25;4984293;27;45374;-84
2023/12/20 09:39:21;;;;;;;;;6.00;2.00;;;;;9.71;71.30;101761.56;4988117;28;45323;-83
2023/12/20 09:42:01;;;;;;;;;7.00;4.50;;;;;9.86;71.95;101770.78;4979449;28;45564;-83
2023/12/20 09:44:26;;;;;;;;;4.00;2.00;;;;;9.96;72.32;101774.00;4993318;27;45205;-83
2023/12/20 09:46:54;;;;;;;;;4.00;3.00;;;;;10.00;72.07;101765.00;4992095;28;45474;-83
2023/12/20 09:49:20;;;;;;;;;4.75;4.75;;;;;10.01;72.08;101764.94;4989103;27;45541;-84
2023/12/20 09:51:46;;;;;;;;;7.75;3.75;;;;;10.07;71.49;101766.53;4977944;28;45325;-84
2023/12/20 09:54:16;;;;;;;;;3.00;3.00;;;;;10.14;70.91;101773.34;4978366;28;45669;-84
2023/12/20 09:56:41;;;;;;;;;5.25;3.25;;;;;10.02;71.57;101769.31;4980334;27;45278;-84
2023/12/20 09:59:07;;;;;;;;;6.25;5.00;;;;;9.99;71.47;101753.50;4977196;28;45344;-85
2023/12/20 10:01:34;;;;;;;;;2.00;2.00;;;;;10.29;70.71;101777.31;4986927;28;45396;-84
2023/12/20 10:04:01;;;;;;;;;3.25;3.25;;;;;10.28;71.54;101767.56;4997568;28;45414;-84
2023/12/20 10:06:27;;;;;;;;;7.00;3.00;;;;;10.30;71.08;101774.59;4989041;27;45244;-83
2023/12/20 10:08:52;;;;;;;;;3.33;2.33;;;;;10.42;69.90;101775.94;4997640;27;45681;-86
2023/12/20 10:11:19;;;;;;;;;4.67;4.00;;;;;10.16;70.59;101736.09;5016163;27;47152;-86
2023/12/20 10:13:47;;;;;;;;;3.25;2.00;;;;;10.15;70.59;101737.88;4999697;27;45452;-84
2023/12/20 10:16:14;;;;;;;;;3.25;3.25;;;;;10.29;70.51;101769.34;4996751;27;45559;-86
2023/12/20 10:18:40;;;;;;;;;3.00;3.00;;;;;10.26;70.52;101770.28;4999986;27;45453;-86
2023/12/20 10:21:07;;;;;;;;;2.75;2.75;;;;;10.29;70.42;101772.88;4990197;27;45626;-84
2023/12/20 10:23:32;;;;;;;;;3.75;3.00;;;;;10.27;70.52;101768.50;5055883;27;45459;-85
2023/12/20 10:25:59;;;;;;;;;9.00;4.00;;;;;10.38;70.77;101768.13;4995051;27;45318;-84
2023/12/20 10:28:28;;;;;;;;;4.67;3.00;;;;;10.45;69.65;101765.19;5008160;28;45226;-84
2023/12/20 10:30:57;;;;;;;;;5.25;5.25;;;;;10.38;70.14;101744.19;5010356;28;45441;-87
2023/12/20 10:33:25;;;;;;;;;19.00;18.50;;;;;10.35;70.20;101718.56;5068677;27;45449;-86
2023/12/20 10:35:52;;;;;;;;;2.00;2.00;;;;;10.64;69.81;101739.63;5035342;27;45327;-82
2023/12/20 10:38:17;;;;;;;;;9.25;8.00;;;;;10.82;69.74;101737.19;5086248;27;45653;-82
2023/12/20 10:40:45;;;;;;;;;4.25;1.25;;;;;11.28;69.35;101740.69;5015301;28;45401;-86
2023/12/20 10:43:11;;;;;;;;;2.00;2.00;;;;;11.52;67.41;101726.34;5003535;28;45451;-83
2023/12/20 10:45:37;;;;;;;;;11.50;6.75;;;;;11.57;66.48;101729.69;5053988;27;45417;-83
2023/12/20 10:48:03;;;;;;;;;5.00;3.67;;;;;11.79;66.80;101735.88;4978587;27;45344;-82
2023/12/20 10:50:29;;;;;;;;;5.33;4.00;;;;;11.89;65.95;101749.69;4999732;28;45590;-84
2023/12/20 10:52:55;;;;;;;;;6.67;6.67;;;;;11.78;66.01;101736.78;5012011;27;45478;-84
2023/12/20 10:55:25;;;;;;;;;6.33;4.00;;;;;11.59;66.21;101721.63;5027842;27;45718;-83
2023/12/20 10:58:08;;;;;;;;;3.33;2.33;;;;;11.69;65.96;101705.19;5023837;27;45551;-85
2023/12/20 11:00:40;;;;;;;;;3.33;3.00;;;;;12.02;64.35;101720.69;4998460;28;46143;-84
2023/12/20 11:03:09;;;;;;;;;7.67;5.00;;;;;12.05;64.67;101707.22;5037376;27;45784;-85
2023/12/20 11:05:46;;;;;;;;;7.00;4.33;;;;;12.27;64.97;101713.31;5041202;27;45493;-85
2023/12/20 11:08:22;;;;;;;;;4.00;3.33;;;;;12.35;64.33;101702.28;5085990;27;45518;-83
2023/12/20 11:10:50;;;;;;;;;4.33;3.00;;;;;12.51;63.97;101702.47;5045622;27;45328;-86
2023/12/20 11:13:26;;;;;;;;;3.00;3.00;;;;;12.73;62.92;101697.84;5035792;27;45499;-84
2023/12/20 11:15:52;;;;;;;;;4.00;2.33;;;;;12.96;62.74;101686.94;4998269;27;45370;-85
2023/12/20 11:18:29;;;;;;;;;4.00;4.00;;;;;13.05;61.16;101680.28;4998156;27;45503;-86
2023/12/20 11:20:54;;;;;;;;;9.67;4.33;;;;;13.22;61.56;101663.44;4995890;27;45508;-86
2023/12/20 11:23:20;;;;;;;;;4.33;4.33;;;;;13.50;60.38;101682.47;4995198;28;45437;-89
2023/12/20 11:25:53;;;;;;;;;6.33;5.67;;;;;13.57;60.37;101654.50;4990595;28;45398;-90